sensor_id;sensor_type;location;lat;lon;timestamp;P1;durP1;ratioP1;P2;durP2;ratioP2
64682;SDS011;51107;47.652;19.016;2022-07-03T00:01:01;2.00;;;1.37;;
64682;SDS011;51107;47.652;19.016;2022-07-03T00:03:31;2.80;;;1.60;;
64682;SDS011;51107;47.652;19.016;2022-07-03T00:05:59;2.28;;;1.45;;
64682;SDS011;51107;47.652;19.016;2022-07-03T00:08:30;2.03;;;1.50;;
64682;SDS011;51107;47.652;19.016;2022-07-03T00:10:59;1.98;;;1.50;;
64682;SDS011;51107;47.652;19.016;2022-07-03T00:13:27;1.52;;;1.10;;
64682;SDS011;51107;47.652;19.016;2022-07-03T00:15:55;1.75;;;1.52;;
64682;SDS011;51107;47.652;19.016;2022-07-03T00:18:24;1.45;;;1.20;;
64682;SDS011;51107;47.652;19.016;2022-07-03T00:20:59;1.83;;;1.30;;
64682;SDS011;51107;47.652;19.016;2022-07-03T00:23:30;1.98;;;1.30;;
64682;SDS011;51107;47.652;19.016;2022-07-03T00:26:08;1.98;;;1.25;;
64682;SDS011;51107;47.652;19.016;2022-07-03T00:28:41;2.33;;;1.70;;
64682;SDS011;51107;47.652;19.016;2022-07-03T00:31:11;1.90;;;1.40;;
64682;SDS011;51107;47.652;19.016;2022-07-03T00:33:40;1.35;;;1.25;;
64682;SDS011;51107;47.652;19.016;2022-07-03T00:36:10;2.97;;;1.30;;
64682;SDS011;51107;47.652;19.016;2022-07-03T00:38:40;1.60;;;1.42;;
64682;SDS011;51107;47.652;19.016;2022-07-03T00:41:08;1.33;;;1.12;;
64682;SDS011;51107;47.652;19.016;2022-07-03T00:43:51;1.65;;;1.20;;
64682;SDS011;51107;47.652;19.016;2022-07-03T00:46:21;1.33;;;1.20;;
64682;SDS011;51107;47.652;19.016;2022-07-03T00:48:52;2.72;;;1.55;;
64682;SDS011;51107;47.652;19.016;2022-07-03T00:51:26;2.35;;;1.67;;
64682;SDS011;51107;47.652;19.016;2022-07-03T00:53:57;1.98;;;1.35;;
64682;SDS011;51107;47.652;19.016;2022-07-03T00:56:29;3.25;;;2.03;;
64682;SDS011;51107;47.652;19.016;2022-07-03T00:58:59;1.77;;;1.50;;
64682;SDS011;51107;47.652;19.016;2022-07-03T01:01:29;1.62;;;1.20;;
64682;SDS011;51107;47.652;19.016;2022-07-03T01:06:40;2.28;;;1.73;;
64682;SDS011;51107;47.652;19.016;2022-07-03T01:09:17;8.40;;;1.23;;
64682;SDS011;51107;47.652;19.016;2022-07-03T01:12:07;2.87;;;1.85;;
64682;SDS011;51107;47.652;19.016;2022-07-03T01:17:33;2.15;;;1.67;;
64682;SDS011;51107;47.652;19.016;2022-07-03T01:20:06;3.72;;;1.55;;
64682;SDS011;51107;47.652;19.016;2022-07-03T01:22:45;2.10;;;1.70;;
64682;SDS011;51107;47.652;19.016;2022-07-03T01:25:26;1.98;;;1.27;;
64682;SDS011;51107;47.652;19.016;2022-07-03T01:30:42;2.55;;;1.58;;
64682;SDS011;51107;47.652;19.016;2022-07-03T01:33:21;6.62;;;1.70;;
64682;SDS011;51107;47.652;19.016;2022-07-03T01:36:04;2.50;;;1.52;;
64682;SDS011;51107;47.652;19.016;2022-07-03T01:38:35;2.33;;;1.65;;
64682;SDS011;51107;47.652;19.016;2022-07-03T01:41:06;1.87;;;1.35;;
64682;SDS011;51107;47.652;19.016;2022-07-03T01:43:46;2.20;;;1.50;;
64682;SDS011;51107;47.652;19.016;2022-07-03T01:46:27;2.40;;;1.60;;
64682;SDS011;51107;47.652;19.016;2022-07-03T01:48:57;1.98;;;1.48;;
64682;SDS011;51107;47.652;19.016;2022-07-03T01:51:27;1.50;;;1.27;;
64682;SDS011;51107;47.652;19.016;2022-07-03T01:53:57;2.33;;;1.55;;
64682;SDS011;51107;47.652;19.016;2022-07-03T01:56:27;2.33;;;1.50;;
64682;SDS011;51107;47.652;19.016;2022-07-03T01:58:59;2.85;;;1.75;;
64682;SDS011;51107;47.652;19.016;2022-07-03T02:01:31;2.37;;;1.62;;
64682;SDS011;51107;47.652;19.016;2022-07-03T02:04:16;1.30;;;1.15;;
64682;SDS011;51107;47.652;19.016;2022-07-03T02:07:10;2.37;;;1.50;;
64682;SDS011;51107;47.652;19.016;2022-07-03T02:09:49;3.22;;;1.50;;
64682;SDS011;51107;47.652;19.016;2022-07-03T02:12:34;2.20;;;1.70;;
64682;SDS011;51107;47.652;19.016;2022-07-03T02:15:08;2.20;;;1.80;;
64682;SDS011;51107;47.652;19.016;2022-07-03T02:17:38;1.37;;;1.20;;
64682;SDS011;51107;47.652;19.016;2022-07-03T02:20:14;2.40;;;1.58;;
64682;SDS011;51107;47.652;19.016;2022-07-03T02:22:46;3.92;;;1.80;;
64682;SDS011;51107;47.652;19.016;2022-07-03T02:25:25;2.80;;;1.58;;
64682;SDS011;51107;47.652;19.016;2022-07-03T02:28:03;2.05;;;1.60;;
64682;SDS011;51107;47.652;19.016;2022-07-03T02:30:37;2.42;;;1.65;;
64682;SDS011;51107;47.652;19.016;2022-07-03T02:33:10;4.05;;;2.00;;
64682;SDS011;51107;47.652;19.016;2022-07-03T02:35:40;1.77;;;1.62;;
64682;SDS011;51107;47.652;19.016;2022-07-03T02:38:18;3.72;;;1.87;;
64682;SDS011;51107;47.652;19.016;2022-07-03T02:41:01;2.22;;;1.60;;
64682;SDS011;51107;47.652;19.016;2022-07-03T02:46:20;2.35;;;1.80;;
64682;SDS011;51107;47.652;19.016;2022-07-03T02:51:52;1.83;;;1.30;;
64682;SDS011;51107;47.652;19.016;2022-07-03T02:54:29;2.12;;;1.65;;
64682;SDS011;51107;47.652;19.016;2022-07-03T02:57:08;1.42;;;1.20;;
64682;SDS011;51107;47.652;19.016;2022-07-03T02:59:52;2.70;;;1.77;;
64682;SDS011;51107;47.652;19.016;2022-07-03T03:08:05;2.60;;;1.77;;
64682;SDS011;51107;47.652;19.016;2022-07-03T03:10:40;1.60;;;1.42;;
64682;SDS011;51107;47.652;19.016;2022-07-03T03:13:10;2.00;;;1.65;;
64682;SDS011;51107;47.652;19.016;2022-07-03T03:15:43;3.33;;;1.87;;
64682;SDS011;51107;47.652;19.016;2022-07-03T03:18:27;1.75;;;1.37;;
64682;SDS011;51107;47.652;19.016;2022-07-03T03:20:58;2.20;;;1.42;;
64682;SDS011;51107;47.652;19.016;2022-07-03T03:26:18;1.73;;;1.45;;
64682;SDS011;51107;47.652;19.016;2022-07-03T03:28:48;2.17;;;1.70;;
64682;SDS011;51107;47.652;19.016;2022-07-03T03:31:18;1.83;;;1.45;;
64682;SDS011;51107;47.652;19.016;2022-07-03T03:33:50;1.80;;;1.20;;
64682;SDS011;51107;47.652;19.016;2022-07-03T03:36:19;2.65;;;1.60;;
64682;SDS011;51107;47.652;19.016;2022-07-03T03:38:48;4.87;;;1.60;;
64682;SDS011;51107;47.652;19.016;2022-07-03T03:41:17;1.60;;;1.50;;
64682;SDS011;51107;47.652;19.016;2022-07-03T03:43:46;2.40;;;1.62;;
64682;SDS011;51107;47.652;19.016;2022-07-03T03:46:14;2.85;;;1.80;;
64682;SDS011;51107;47.652;19.016;2022-07-03T03:48:43;1.62;;;1.40;;
64682;SDS011;51107;47.652;19.016;2022-07-03T03:51:12;3.12;;;1.73;;
64682;SDS011;51107;47.652;19.016;2022-07-03T03:53:42;4.25;;;1.73;;
64682;SDS011;51107;47.652;19.016;2022-07-03T03:56:11;2.92;;;1.92;;
64682;SDS011;51107;47.652;19.016;2022-07-03T03:58:42;4.62;;;1.52;;
64682;SDS011;51107;47.652;19.016;2022-07-03T04:01:11;7.18;;;2.10;;
64682;SDS011;51107;47.652;19.016;2022-07-03T04:03:40;2.58;;;1.77;;
64682;SDS011;51107;47.652;19.016;2022-07-03T04:06:09;4.65;;;1.73;;
64682;SDS011;51107;47.652;19.016;2022-07-03T04:08:37;4.78;;;1.80;;
64682;SDS011;51107;47.652;19.016;2022-07-03T04:11:06;2.12;;;1.60;;
64682;SDS011;51107;47.652;19.016;2022-07-03T04:13:34;6.43;;;2.08;;
64682;SDS011;51107;47.652;19.016;2022-07-03T04:16:02;2.62;;;1.70;;
64682;SDS011;51107;47.652;19.016;2022-07-03T04:18:31;2.10;;;1.48;;
64682;SDS011;51107;47.652;19.016;2022-07-03T04:21:00;1.80;;;1.37;;
64682;SDS011;51107;47.652;19.016;2022-07-03T04:23:28;2.17;;;1.73;;
64682;SDS011;51107;47.652;19.016;2022-07-03T04:26:04;2.53;;;1.80;;
64682;SDS011;51107;47.652;19.016;2022-07-03T04:28:40;2.53;;;1.73;;
64682;SDS011;51107;47.652;19.016;2022-07-03T04:31:09;3.03;;;1.87;;
64682;SDS011;51107;47.652;19.016;2022-07-03T04:33:37;2.80;;;1.67;;
64682;SDS011;51107;47.652;19.016;2022-07-03T04:36:10;4.57;;;1.52;;
64682;SDS011;51107;47.652;19.016;2022-07-03T04:38:38;2.22;;;1.70;;
64682;SDS011;51107;47.652;19.016;2022-07-03T04:41:06;2.12;;;1.48;;
64682;SDS011;51107;47.652;19.016;2022-07-03T04:43:35;2.12;;;1.50;;
64682;SDS011;51107;47.652;19.016;2022-07-03T04:46:04;3.60;;;2.12;;
64682;SDS011;51107;47.652;19.016;2022-07-03T04:48:32;2.58;;;1.60;;
64682;SDS011;51107;47.652;19.016;2022-07-03T04:51:01;2.30;;;1.45;;
64682;SDS011;51107;47.652;19.016;2022-07-03T04:53:29;1.90;;;1.48;;
64682;SDS011;51107;47.652;19.016;2022-07-03T04:55:58;2.12;;;1.75;;
64682;SDS011;51107;47.652;19.016;2022-07-03T04:58:26;2.55;;;1.75;;
64682;SDS011;51107;47.652;19.016;2022-07-03T05:00:54;2.08;;;1.45;;
64682;SDS011;51107;47.652;19.016;2022-07-03T05:03:22;1.62;;;1.40;;
64682;SDS011;51107;47.652;19.016;2022-07-03T05:05:51;3.72;;;1.73;;
64682;SDS011;51107;47.652;19.016;2022-07-03T05:08:20;2.70;;;1.85;;
64682;SDS011;51107;47.652;19.016;2022-07-03T05:10:48;2.80;;;1.65;;
64682;SDS011;51107;47.652;19.016;2022-07-03T05:13:17;2.92;;;1.75;;
64682;SDS011;51107;47.652;19.016;2022-07-03T05:15:45;2.90;;;1.80;;
64682;SDS011;51107;47.652;19.016;2022-07-03T05:18:13;2.25;;;1.70;;
64682;SDS011;51107;47.652;19.016;2022-07-03T05:20:48;4.75;;;1.75;;
64682;SDS011;51107;47.652;19.016;2022-07-03T05:23:16;2.00;;;1.48;;
64682;SDS011;51107;47.652;19.016;2022-07-03T05:25:47;2.37;;;1.40;;
64682;SDS011;51107;47.652;19.016;2022-07-03T05:28:15;2.47;;;1.52;;
64682;SDS011;51107;47.652;19.016;2022-07-03T05:30:43;2.53;;;1.65;;
64682;SDS011;51107;47.652;19.016;2022-07-03T05:33:12;3.80;;;1.83;;
64682;SDS011;51107;47.652;19.016;2022-07-03T05:35:40;4.78;;;1.70;;
64682;SDS011;51107;47.652;19.016;2022-07-03T05:38:09;2.08;;;1.77;;
64682;SDS011;51107;47.652;19.016;2022-07-03T05:40:37;2.58;;;1.73;;
64682;SDS011;51107;47.652;19.016;2022-07-03T05:43:05;2.20;;;1.52;;
64682;SDS011;51107;47.652;19.016;2022-07-03T05:45:34;2.33;;;2.00;;
64682;SDS011;51107;47.652;19.016;2022-07-03T05:48:02;3.37;;;1.98;;
64682;SDS011;51107;47.652;19.016;2022-07-03T05:50:30;2.08;;;1.60;;
64682;SDS011;51107;47.652;19.016;2022-07-03T05:52:59;2.72;;;2.00;;
64682;SDS011;51107;47.652;19.016;2022-07-03T05:55:27;2.70;;;1.80;;
64682;SDS011;51107;47.652;19.016;2022-07-03T05:57:55;3.60;;;2.15;;
64682;SDS011;51107;47.652;19.016;2022-07-03T06:00:23;3.78;;;1.85;;
64682;SDS011;51107;47.652;19.016;2022-07-03T06:02:52;2.45;;;1.80;;
64682;SDS011;51107;47.652;19.016;2022-07-03T06:05:20;3.55;;;1.73;;
64682;SDS011;51107;47.652;19.016;2022-07-03T06:07:48;2.87;;;2.12;;
64682;SDS011;51107;47.652;19.016;2022-07-03T06:10:17;2.17;;;1.83;;
64682;SDS011;51107;47.652;19.016;2022-07-03T06:12:46;1.92;;;1.62;;
64682;SDS011;51107;47.652;19.016;2022-07-03T06:15:14;2.60;;;1.73;;
64682;SDS011;51107;47.652;19.016;2022-07-03T06:17:42;2.10;;;1.90;;
64682;SDS011;51107;47.652;19.016;2022-07-03T06:20:11;2.42;;;1.52;;
64682;SDS011;51107;47.652;19.016;2022-07-03T06:22:41;2.90;;;1.70;;
64682;SDS011;51107;47.652;19.016;2022-07-03T06:25:09;2.55;;;2.00;;
64682;SDS011;51107;47.652;19.016;2022-07-03T06:27:38;2.22;;;1.90;;
64682;SDS011;51107;47.652;19.016;2022-07-03T06:30:06;2.72;;;1.48;;
64682;SDS011;51107;47.652;19.016;2022-07-03T06:32:35;2.05;;;1.70;;
64682;SDS011;51107;47.652;19.016;2022-07-03T06:35:04;2.65;;;2.05;;
64682;SDS011;51107;47.652;19.016;2022-07-03T06:37:33;2.40;;;1.87;;
64682;SDS011;51107;47.652;19.016;2022-07-03T06:40:02;2.75;;;1.90;;
64682;SDS011;51107;47.652;19.016;2022-07-03T06:42:30;3.35;;;1.70;;
64682;SDS011;51107;47.652;19.016;2022-07-03T06:44:58;2.75;;;1.85;;
64682;SDS011;51107;47.652;19.016;2022-07-03T06:47:27;2.47;;;1.80;;
64682;SDS011;51107;47.652;19.016;2022-07-03T06:49:55;2.00;;;1.70;;
64682;SDS011;51107;47.652;19.016;2022-07-03T06:52:23;2.25;;;1.75;;
64682;SDS011;51107;47.652;19.016;2022-07-03T06:54:52;3.55;;;2.00;;
64682;SDS011;51107;47.652;19.016;2022-07-03T06:57:20;2.70;;;1.80;;
64682;SDS011;51107;47.652;19.016;2022-07-03T06:59:48;3.25;;;1.95;;
64682;SDS011;51107;47.652;19.016;2022-07-03T07:02:17;2.75;;;1.87;;
64682;SDS011;51107;47.652;19.016;2022-07-03T07:04:45;3.65;;;1.67;;
64682;SDS011;51107;47.652;19.016;2022-07-03T07:07:13;2.37;;;1.87;;
64682;SDS011;51107;47.652;19.016;2022-07-03T07:09:42;2.67;;;1.50;;
64682;SDS011;51107;47.652;19.016;2022-07-03T07:12:11;3.20;;;1.90;;
64682;SDS011;51107;47.652;19.016;2022-07-03T07:14:39;2.97;;;2.08;;
64682;SDS011;51107;47.652;19.016;2022-07-03T07:17:07;2.00;;;1.75;;
64682;SDS011;51107;47.652;19.016;2022-07-03T07:19:35;2.60;;;1.92;;
64682;SDS011;51107;47.652;19.016;2022-07-03T07:22:04;3.72;;;1.85;;
64682;SDS011;51107;47.652;19.016;2022-07-03T07:24:32;4.40;;;1.70;;
64682;SDS011;51107;47.652;19.016;2022-07-03T07:27:01;3.00;;;1.90;;
64682;SDS011;51107;47.652;19.016;2022-07-03T07:29:29;4.53;;;2.00;;
64682;SDS011;51107;47.652;19.016;2022-07-03T07:31:57;4.90;;;1.92;;
64682;SDS011;51107;47.652;19.016;2022-07-03T07:34:26;3.22;;;2.20;;
64682;SDS011;51107;47.652;19.016;2022-07-03T07:36:54;1.60;;;1.50;;
64682;SDS011;51107;47.652;19.016;2022-07-03T07:39:23;2.55;;;2.00;;
64682;SDS011;51107;47.652;19.016;2022-07-03T07:41:51;2.17;;;1.73;;
64682;SDS011;51107;47.652;19.016;2022-07-03T07:44:19;3.00;;;2.10;;
64682;SDS011;51107;47.652;19.016;2022-07-03T07:46:48;5.75;;;2.12;;
64682;SDS011;51107;47.652;19.016;2022-07-03T07:49:17;2.72;;;1.98;;
64682;SDS011;51107;47.652;19.016;2022-07-03T07:51:45;2.37;;;1.90;;
64682;SDS011;51107;47.652;19.016;2022-07-03T07:54:13;2.37;;;1.95;;
64682;SDS011;51107;47.652;19.016;2022-07-03T07:56:41;2.15;;;1.52;;
64682;SDS011;51107;47.652;19.016;2022-07-03T07:59:10;2.33;;;2.12;;
64682;SDS011;51107;47.652;19.016;2022-07-03T08:01:38;3.62;;;2.50;;
64682;SDS011;51107;47.652;19.016;2022-07-03T08:04:26;2.78;;;1.98;;
64682;SDS011;51107;47.652;19.016;2022-07-03T08:07:12;3.00;;;1.92;;
64682;SDS011;51107;47.652;19.016;2022-07-03T08:09:41;2.33;;;1.83;;
64682;SDS011;51107;47.652;19.016;2022-07-03T08:12:10;2.95;;;1.70;;
64682;SDS011;51107;47.652;19.016;2022-07-03T08:14:38;2.28;;;1.85;;
64682;SDS011;51107;47.652;19.016;2022-07-03T08:17:06;2.37;;;1.92;;
64682;SDS011;51107;47.652;19.016;2022-07-03T08:19:35;1.77;;;1.65;;
64682;SDS011;51107;47.652;19.016;2022-07-03T08:22:03;2.22;;;2.00;;
64682;SDS011;51107;47.652;19.016;2022-07-03T08:24:32;2.10;;;1.83;;
64682;SDS011;51107;47.652;19.016;2022-07-03T08:27:00;4.10;;;1.70;;
64682;SDS011;51107;47.652;19.016;2022-07-03T08:29:28;2.50;;;2.08;;
64682;SDS011;51107;47.652;19.016;2022-07-03T08:32:07;2.95;;;1.95;;
64682;SDS011;51107;47.652;19.016;2022-07-03T08:34:35;3.28;;;2.15;;
64682;SDS011;51107;47.652;19.016;2022-07-03T08:37:03;3.20;;;2.33;;
64682;SDS011;51107;47.652;19.016;2022-07-03T08:39:32;3.58;;;2.10;;
64682;SDS011;51107;47.652;19.016;2022-07-03T08:42:00;1.95;;;1.77;;
64682;SDS011;51107;47.652;19.016;2022-07-03T08:44:29;2.33;;;2.10;;
64682;SDS011;51107;47.652;19.016;2022-07-03T08:46:59;2.25;;;1.90;;
64682;SDS011;51107;47.652;19.016;2022-07-03T08:49:30;3.87;;;1.83;;
64682;SDS011;51107;47.652;19.016;2022-07-03T08:52:00;4.30;;;2.10;;
64682;SDS011;51107;47.652;19.016;2022-07-03T08:54:29;3.58;;;2.00;;
64682;SDS011;51107;47.652;19.016;2022-07-03T08:57:02;2.97;;;2.00;;
64682;SDS011;51107;47.652;19.016;2022-07-03T08:59:32;2.42;;;1.80;;
64682;SDS011;51107;47.652;19.016;2022-07-03T09:02:05;2.15;;;1.95;;
64682;SDS011;51107;47.652;19.016;2022-07-03T09:04:34;2.62;;;1.80;;
64682;SDS011;51107;47.652;19.016;2022-07-03T09:07:03;2.40;;;1.90;;
64682;SDS011;51107;47.652;19.016;2022-07-03T09:09:34;2.58;;;1.75;;
64682;SDS011;51107;47.652;19.016;2022-07-03T09:12:04;2.20;;;1.60;;
64682;SDS011;51107;47.652;19.016;2022-07-03T09:14:32;2.25;;;1.62;;
64682;SDS011;51107;47.652;19.016;2022-07-03T09:17:00;2.17;;;1.70;;
64682;SDS011;51107;47.652;19.016;2022-07-03T09:19:45;2.50;;;1.60;;
64682;SDS011;51107;47.652;19.016;2022-07-03T09:27:30;1.80;;;1.65;;
64682;SDS011;51107;47.652;19.016;2022-07-03T09:30:05;1.70;;;1.55;;
64682;SDS011;51107;47.652;19.016;2022-07-03T09:35:18;2.20;;;1.83;;
64682;SDS011;51107;47.652;19.016;2022-07-03T09:37:57;2.70;;;1.55;;
64682;SDS011;51107;47.652;19.016;2022-07-03T09:40:28;2.22;;;1.80;;
64682;SDS011;51107;47.652;19.016;2022-07-03T09:43:30;2.37;;;1.83;;
64682;SDS011;51107;47.652;19.016;2022-07-03T09:45:59;2.17;;;1.98;;
64682;SDS011;51107;47.652;19.016;2022-07-03T09:48:32;2.33;;;1.77;;
64682;SDS011;51107;47.652;19.016;2022-07-03T09:53:48;2.65;;;1.77;;
64682;SDS011;51107;47.652;19.016;2022-07-03T09:56:26;2.05;;;1.70;;
64682;SDS011;51107;47.652;19.016;2022-07-03T09:59:29;1.92;;;1.73;;
64682;SDS011;51107;47.652;19.016;2022-07-03T10:01:49;1.98;;;1.83;;
64682;SDS011;51107;47.652;19.016;2022-07-03T10:04:18;2.10;;;1.87;;
64682;SDS011;51107;47.652;19.016;2022-07-03T10:06:55;2.10;;;1.80;;
64682;SDS011;51107;47.652;19.016;2022-07-03T10:09:25;2.25;;;1.77;;
64682;SDS011;51107;47.652;19.016;2022-07-03T10:11:58;2.07;;;1.73;;
64682;SDS011;51107;47.652;19.016;2022-07-03T10:14:29;1.70;;;1.60;;
64682;SDS011;51107;47.652;19.016;2022-07-03T10:16:58;1.60;;;1.50;;
64682;SDS011;51107;47.652;19.016;2022-07-03T10:19:30;2.50;;;2.20;;
64682;SDS011;51107;47.652;19.016;2022-07-03T10:22:07;7.78;;;1.90;;
64682;SDS011;51107;47.652;19.016;2022-07-03T10:24:44;1.83;;;1.62;;
64682;SDS011;51107;47.652;19.016;2022-07-03T10:27:15;2.30;;;1.80;;
64682;SDS011;51107;47.652;19.016;2022-07-03T10:29:44;2.75;;;2.05;;
64682;SDS011;51107;47.652;19.016;2022-07-03T10:32:14;1.90;;;1.80;;
64682;SDS011;51107;47.652;19.016;2022-07-03T10:34:42;1.67;;;1.48;;
64682;SDS011;51107;47.652;19.016;2022-07-03T10:37:15;1.80;;;1.60;;
64682;SDS011;51107;47.652;19.016;2022-07-03T10:40:05;2.03;;;1.80;;
64682;SDS011;51107;47.652;19.016;2022-07-03T10:42:57;1.87;;;1.62;;
64682;SDS011;51107;47.652;19.016;2022-07-03T10:49:25;3.10;;;1.62;;
64682;SDS011;51107;47.652;19.016;2022-07-03T10:51:29;2.42;;;1.67;;
64682;SDS011;51107;47.652;19.016;2022-07-03T10:54:34;2.20;;;1.87;;
64682;SDS011;51107;47.652;19.016;2022-07-03T11:02:51;4.55;;;1.70;;
64682;SDS011;51107;47.652;19.016;2022-07-03T11:07:33;1.75;;;1.60;;
64682;SDS011;51107;47.652;19.016;2022-07-03T11:23:57;3.55;;;1.73;;
64682;SDS011;51107;47.652;19.016;2022-07-03T11:27:11;2.33;;;1.50;;
64682;SDS011;51107;47.652;19.016;2022-07-03T11:29:54;1.85;;;1.65;;
64682;SDS011;51107;47.652;19.016;2022-07-03T11:38:25;1.73;;;1.45;;
64682;SDS011;51107;47.652;19.016;2022-07-03T11:40:56;1.92;;;1.30;;
64682;SDS011;51107;47.652;19.016;2022-07-03T11:43:28;1.42;;;1.27;;
64682;SDS011;51107;47.652;19.016;2022-07-03T11:45:56;1.50;;;1.40;;
64682;SDS011;51107;47.652;19.016;2022-07-03T11:48:26;1.67;;;1.40;;
64682;SDS011;51107;47.652;19.016;2022-07-03T11:50:59;4.90;;;1.80;;
64682;SDS011;51107;47.652;19.016;2022-07-03T11:53:32;2.15;;;1.77;;
64682;SDS011;51107;47.652;19.016;2022-07-03T11:56:03;1.83;;;1.40;;
64682;SDS011;51107;47.652;19.016;2022-07-03T11:58:46;1.60;;;1.48;;
64682;SDS011;51107;47.652;19.016;2022-07-03T12:03:49;1.67;;;1.40;;
64682;SDS011;51107;47.652;19.016;2022-07-03T12:06:18;1.98;;;1.60;;
64682;SDS011;51107;47.652;19.016;2022-07-03T12:08:47;1.60;;;1.50;;
64682;SDS011;51107;47.652;19.016;2022-07-03T12:11:17;1.50;;;1.40;;
64682;SDS011;51107;47.652;19.016;2022-07-03T12:13:45;1.92;;;1.50;;
64682;SDS011;51107;47.652;19.016;2022-07-03T12:16:13;1.80;;;1.60;;
64682;SDS011;51107;47.652;19.016;2022-07-03T12:18:43;2.55;;;1.60;;
64682;SDS011;51107;47.652;19.016;2022-07-03T12:21:14;1.77;;;1.52;;
64682;SDS011;51107;47.652;19.016;2022-07-03T12:23:53;2.15;;;1.50;;
64682;SDS011;51107;47.652;19.016;2022-07-03T12:28:59;2.08;;;1.23;;
64682;SDS011;51107;47.652;19.016;2022-07-03T12:31:33;1.40;;;1.30;;
64682;SDS011;51107;47.652;19.016;2022-07-03T12:34:02;2.22;;;1.70;;
64682;SDS011;51107;47.652;19.016;2022-07-03T12:36:30;3.37;;;1.87;;
64682;SDS011;51107;47.652;19.016;2022-07-03T12:38:59;1.95;;;1.65;;
64682;SDS011;51107;47.652;19.016;2022-07-03T12:41:30;1.92;;;1.42;;
64682;SDS011;51107;47.652;19.016;2022-07-03T12:43:59;3.70;;;1.23;;
64682;SDS011;51107;47.652;19.016;2022-07-03T12:46:33;2.15;;;1.55;;
64682;SDS011;51107;47.652;19.016;2022-07-03T12:49:10;2.00;;;1.50;;
64682;SDS011;51107;47.652;19.016;2022-07-03T12:54:11;2.17;;;1.48;;
64682;SDS011;51107;47.652;19.016;2022-07-03T12:56:43;1.73;;;1.58;;
64682;SDS011;51107;47.652;19.016;2022-07-03T12:59:27;1.92;;;1.50;;
64682;SDS011;51107;47.652;19.016;2022-07-03T13:02:03;4.10;;;1.40;;
64682;SDS011;51107;47.652;19.016;2022-07-03T13:04:34;1.90;;;1.48;;
64682;SDS011;51107;47.652;19.016;2022-07-03T13:07:07;3.80;;;1.30;;
64682;SDS011;51107;47.652;19.016;2022-07-03T13:09:36;3.20;;;1.45;;
64682;SDS011;51107;47.652;19.016;2022-07-03T13:12:05;1.10;;;1.05;;
64682;SDS011;51107;47.652;19.016;2022-07-03T13:14:33;2.53;;;1.48;;
64682;SDS011;51107;47.652;19.016;2022-07-03T13:17:02;1.62;;;1.20;;
64682;SDS011;51107;47.652;19.016;2022-07-03T13:19:30;2.37;;;1.20;;
64682;SDS011;51107;47.652;19.016;2022-07-03T13:21:59;1.50;;;1.25;;
64682;SDS011;51107;47.652;19.016;2022-07-03T13:24:28;2.12;;;1.12;;
64682;SDS011;51107;47.652;19.016;2022-07-03T13:26:56;1.45;;;1.30;;
64682;SDS011;51107;47.652;19.016;2022-07-03T13:29:26;1.90;;;1.23;;
64682;SDS011;51107;47.652;19.016;2022-07-03T13:31:55;1.65;;;1.20;;
64682;SDS011;51107;47.652;19.016;2022-07-03T13:34:23;1.35;;;1.25;;
64682;SDS011;51107;47.652;19.016;2022-07-03T13:36:51;3.45;;;1.02;;
64682;SDS011;51107;47.652;19.016;2022-07-03T13:39:20;1.75;;;1.08;;
64682;SDS011;51107;47.652;19.016;2022-07-03T13:41:48;1.05;;;0.93;;
64682;SDS011;51107;47.652;19.016;2022-07-03T13:44:16;2.30;;;1.30;;
64682;SDS011;51107;47.652;19.016;2022-07-03T13:46:45;3.70;;;1.25;;
64682;SDS011;51107;47.652;19.016;2022-07-03T13:49:18;1.55;;;1.15;;
64682;SDS011;51107;47.652;19.016;2022-07-03T13:51:47;3.08;;;1.45;;
64682;SDS011;51107;47.652;19.016;2022-07-03T13:54:15;1.30;;;1.00;;
64682;SDS011;51107;47.652;19.016;2022-07-03T13:56:44;1.52;;;1.05;;
64682;SDS011;51107;47.652;19.016;2022-07-03T13:59:13;2.53;;;1.20;;
64682;SDS011;51107;47.652;19.016;2022-07-03T14:01:41;1.33;;;1.20;;
64682;SDS011;51107;47.652;19.016;2022-07-03T14:04:10;1.55;;;1.35;;
64682;SDS011;51107;47.652;19.016;2022-07-03T14:06:38;2.75;;;1.27;;
64682;SDS011;51107;47.652;19.016;2022-07-03T14:09:06;1.40;;;1.30;;
64682;SDS011;51107;47.652;19.016;2022-07-03T14:11:35;2.60;;;1.10;;
64682;SDS011;51107;47.652;19.016;2022-07-03T14:14:03;3.90;;;1.33;;
64682;SDS011;51107;47.652;19.016;2022-07-03T14:16:31;2.30;;;1.80;;
64682;SDS011;51107;47.652;19.016;2022-07-03T14:19:00;1.30;;;1.20;;
64682;SDS011;51107;47.652;19.016;2022-07-03T14:21:31;2.95;;;1.23;;
64682;SDS011;51107;47.652;19.016;2022-07-03T14:24:00;1.40;;;1.30;;
64682;SDS011;51107;47.652;19.016;2022-07-03T14:26:28;1.77;;;1.20;;
64682;SDS011;51107;47.652;19.016;2022-07-03T14:29:16;1.80;;;1.23;;
64682;SDS011;51107;47.652;19.016;2022-07-03T14:32:02;1.40;;;1.30;;
64682;SDS011;51107;47.652;19.016;2022-07-03T14:34:50;1.80;;;1.00;;
64682;SDS011;51107;47.652;19.016;2022-07-03T14:37:19;1.08;;;1.02;;
64682;SDS011;51107;47.652;19.016;2022-07-03T14:39:48;1.30;;;1.20;;
64682;SDS011;51107;47.652;19.016;2022-07-03T14:42:17;1.40;;;1.30;;
64682;SDS011;51107;47.652;19.016;2022-07-03T14:44:46;2.53;;;1.12;;
64682;SDS011;51107;47.652;19.016;2022-07-03T14:47:14;1.37;;;1.27;;
64682;SDS011;51107;47.652;19.016;2022-07-03T14:49:43;1.42;;;1.15;;
64682;SDS011;51107;47.652;19.016;2022-07-03T14:52:11;1.50;;;1.33;;
64682;SDS011;51107;47.652;19.016;2022-07-03T14:54:40;2.20;;;1.23;;
64682;SDS011;51107;47.652;19.016;2022-07-03T14:59:41;1.40;;;1.30;;
64682;SDS011;51107;47.652;19.016;2022-07-03T15:02:18;1.37;;;1.23;;
64682;SDS011;51107;47.652;19.016;2022-07-03T15:04:55;1.20;;;1.10;;
64682;SDS011;51107;47.652;19.016;2022-07-03T15:07:34;1.00;;;0.90;;
64682;SDS011;51107;47.652;19.016;2022-07-03T15:12:43;1.27;;;1.17;;
64682;SDS011;51107;47.652;19.016;2022-07-03T15:15:15;1.00;;;0.90;;
64682;SDS011;51107;47.652;19.016;2022-07-03T15:17:45;1.85;;;1.48;;
64682;SDS011;51107;47.652;19.016;2022-07-03T15:20:17;1.15;;;1.05;;
64682;SDS011;51107;47.652;19.016;2022-07-03T15:22:47;1.25;;;1.15;;
64682;SDS011;51107;47.652;19.016;2022-07-03T15:25:16;1.30;;;0.90;;
64682;SDS011;51107;47.652;19.016;2022-07-03T15:27:48;2.35;;;1.42;;
64682;SDS011;51107;47.652;19.016;2022-07-03T15:30:20;1.40;;;1.25;;
64682;SDS011;51107;47.652;19.016;2022-07-03T15:32:49;1.52;;;1.27;;
64682;SDS011;51107;47.652;19.016;2022-07-03T15:35:19;3.55;;;1.35;;
64682;SDS011;51107;47.652;19.016;2022-07-03T15:40:26;1.20;;;1.05;;
64682;SDS011;51107;47.652;19.016;2022-07-03T15:48:21;0.90;;;0.90;;
64682;SDS011;51107;47.652;19.016;2022-07-03T15:51:07;1.33;;;1.10;;
64682;SDS011;51107;47.652;19.016;2022-07-03T15:53:37;4.37;;;1.30;;
64682;SDS011;51107;47.652;19.016;2022-07-03T15:56:08;1.60;;;1.10;;
64682;SDS011;51107;47.652;19.016;2022-07-03T15:58:44;2.40;;;1.10;;
64682;SDS011;51107;47.652;19.016;2022-07-03T16:01:17;1.35;;;1.10;;
64682;SDS011;51107;47.652;19.016;2022-07-03T16:04:27;3.08;;;1.10;;
64682;SDS011;51107;47.652;19.016;2022-07-03T16:06:58;4.15;;;1.75;;
64682;SDS011;51107;47.652;19.016;2022-07-03T16:09:29;1.15;;;1.05;;
64682;SDS011;51107;47.652;19.016;2022-07-03T16:11:57;3.20;;;1.25;;
64682;SDS011;51107;47.652;19.016;2022-07-03T16:14:28;1.65;;;1.42;;
64682;SDS011;51107;47.652;19.016;2022-07-03T16:17:01;1.33;;;1.20;;
64682;SDS011;51107;47.652;19.016;2022-07-03T16:19:31;1.70;;;1.25;;
64682;SDS011;51107;47.652;19.016;2022-07-03T16:22:01;2.37;;;1.10;;
64682;SDS011;51107;47.652;19.016;2022-07-03T16:24:35;1.27;;;1.02;;